sensor_id;sensor_type;location;lat;lon;timestamp;P1;durP1;ratioP1;P2;durP2;ratioP2
70071;SDS011;57434;42.794;23.302;2023-07-13T00:00:48;10.13;;;6.32;;
70071;SDS011;57434;42.794;23.302;2023-07-13T00:01:49;11.38;;;6.03;;
70071;SDS011;57434;42.794;23.302;2023-07-13T00:02:51;13.25;;;6.05;;
70071;SDS011;57434;42.794;23.302;2023-07-13T00:03:54;12.98;;;6.20;;
70071;SDS011;57434;42.794;23.302;2023-07-13T00:04:56;9.07;;;5.77;;
70071;SDS011;57434;42.794;23.302;2023-07-13T00:05:59;13.05;;;6.35;;
70071;SDS011;57434;42.794;23.302;2023-07-13T00:07:00;8.90;;;5.65;;
70071;SDS011;57434;42.794;23.302;2023-07-13T00:08:02;9.98;;;6.50;;
70071;SDS011;57434;42.794;23.302;2023-07-13T00:09:04;10.45;;;6.47;;
70071;SDS011;57434;42.794;23.302;2023-07-13T00:10:06;8.73;;;5.80;;
70071;SDS011;57434;42.794;23.302;2023-07-13T00:11:08;9.95;;;6.00;;
70071;SDS011;57434;42.794;23.302;2023-07-13T00:12:22;10.27;;;5.97;;
70071;SDS011;57434;42.794;23.302;2023-07-13T00:13:24;11.27;;;6.80;;
70071;SDS011;57434;42.794;23.302;2023-07-13T00:14:26;10.13;;;5.85;;
70071;SDS011;57434;42.794;23.302;2023-07-13T00:15:28;9.87;;;6.30;;
70071;SDS011;57434;42.794;23.302;2023-07-13T00:16:30;10.30;;;6.18;;
70071;SDS011;57434;42.794;23.302;2023-07-13T00:17:32;10.13;;;6.88;;
70071;SDS011;57434;42.794;23.302;2023-07-13T00:18:34;9.77;;;6.03;;
70071;SDS011;57434;42.794;23.302;2023-07-13T00:19:36;12.02;;;6.40;;
70071;SDS011;57434;42.794;23.302;2023-07-13T00:20:38;11.60;;;6.03;;
70071;SDS011;57434;42.794;23.302;2023-07-13T00:21:40;10.43;;;6.68;;
70071;SDS011;57434;42.794;23.302;2023-07-13T00:22:42;12.63;;;6.53;;
70071;SDS011;57434;42.794;23.302;2023-07-13T00:23:43;9.80;;;6.30;;
70071;SDS011;57434;42.794;23.302;2023-07-13T00:24:45;10.45;;;6.65;;
70071;SDS011;57434;42.794;23.302;2023-07-13T00:25:51;12.43;;;6.40;;
70071;SDS011;57434;42.794;23.302;2023-07-13T00:26:53;10.98;;;6.43;;
70071;SDS011;57434;42.794;23.302;2023-07-13T00:27:54;11.50;;;6.60;;
70071;SDS011;57434;42.794;23.302;2023-07-13T00:28:56;11.43;;;6.40;;
70071;SDS011;57434;42.794;23.302;2023-07-13T00:29:58;11.27;;;6.60;;
70071;SDS011;57434;42.794;23.302;2023-07-13T00:31:00;11.65;;;6.45;;
70071;SDS011;57434;42.794;23.302;2023-07-13T00:32:05;10.73;;;7.10;;
70071;SDS011;57434;42.794;23.302;2023-07-13T00:33:07;11.20;;;6.53;;
70071;SDS011;57434;42.794;23.302;2023-07-13T00:34:18;10.45;;;6.72;;
70071;SDS011;57434;42.794;23.302;2023-07-13T00:35:20;14.20;;;6.75;;
70071;SDS011;57434;42.794;23.302;2023-07-13T00:36:22;9.97;;;6.60;;
70071;SDS011;57434;42.794;23.302;2023-07-13T00:37:24;11.32;;;7.13;;
70071;SDS011;57434;42.794;23.302;2023-07-13T00:38:26;11.02;;;6.78;;
70071;SDS011;57434;42.794;23.302;2023-07-13T00:39:27;10.90;;;7.28;;
70071;SDS011;57434;42.794;23.302;2023-07-13T00:40:29;9.70;;;6.20;;
70071;SDS011;57434;42.794;23.302;2023-07-13T00:41:31;8.90;;;6.28;;
70071;SDS011;57434;42.794;23.302;2023-07-13T00:42:33;10.65;;;6.53;;
70071;SDS011;57434;42.794;23.302;2023-07-13T00:43:35;12.65;;;6.97;;
70071;SDS011;57434;42.794;23.302;2023-07-13T00:44:36;10.00;;;6.47;;
70071;SDS011;57434;42.794;23.302;2023-07-13T00:46:46;9.83;;;6.63;;
70071;SDS011;57434;42.794;23.302;2023-07-13T00:47:48;10.82;;;6.38;;
70071;SDS011;57434;42.794;23.302;2023-07-13T00:48:50;10.68;;;6.60;;
70071;SDS011;57434;42.794;23.302;2023-07-13T00:49:52;8.98;;;6.65;;
70071;SDS011;57434;42.794;23.302;2023-07-13T00:50:54;9.32;;;6.07;;
70071;SDS011;57434;42.794;23.302;2023-07-13T00:51:58;9.88;;;6.07;;
70071;SDS011;57434;42.794;23.302;2023-07-13T00:53:00;12.88;;;7.25;;
70071;SDS011;57434;42.794;23.302;2023-07-13T00:54:03;12.82;;;6.22;;
70071;SDS011;57434;42.794;23.302;2023-07-13T00:55:05;9.57;;;6.25;;
70071;SDS011;57434;42.794;23.302;2023-07-13T00:56:08;12.25;;;7.25;;
70071;SDS011;57434;42.794;23.302;2023-07-13T00:57:12;11.63;;;6.60;;
70071;SDS011;57434;42.794;23.302;2023-07-13T00:58:15;12.55;;;6.63;;
70071;SDS011;57434;42.794;23.302;2023-07-13T00:59:17;11.10;;;6.80;;
70071;SDS011;57434;42.794;23.302;2023-07-13T01:00:20;11.02;;;7.00;;
70071;SDS011;57434;42.794;23.302;2023-07-13T01:01:22;13.23;;;7.28;;
70071;SDS011;57434;42.794;23.302;2023-07-13T01:02:24;13.82;;;6.85;;
70071;SDS011;57434;42.794;23.302;2023-07-13T01:03:26;10.82;;;6.57;;
70071;SDS011;57434;42.794;23.302;2023-07-13T01:04:28;13.07;;;6.38;;
70071;SDS011;57434;42.794;23.302;2023-07-13T01:05:30;11.93;;;6.70;;
70071;SDS011;57434;42.794;23.302;2023-07-13T01:06:34;10.25;;;5.90;;
70071;SDS011;57434;42.794;23.302;2023-07-13T01:07:35;12.30;;;6.83;;
70071;SDS011;57434;42.794;23.302;2023-07-13T01:08:37;11.68;;;6.88;;
70071;SDS011;57434;42.794;23.302;2023-07-13T01:09:39;10.90;;;6.80;;
70071;SDS011;57434;42.794;23.302;2023-07-13T01:10:40;11.40;;;6.55;;
70071;SDS011;57434;42.794;23.302;2023-07-13T01:11:42;9.00;;;5.80;;
70071;SDS011;57434;42.794;23.302;2023-07-13T01:12:44;10.40;;;6.25;;
70071;SDS011;57434;42.794;23.302;2023-07-13T01:13:46;9.57;;;6.28;;
70071;SDS011;57434;42.794;23.302;2023-07-13T01:14:56;10.38;;;6.30;;
70071;SDS011;57434;42.794;23.302;2023-07-13T01:17:17;9.23;;;5.75;;
70071;SDS011;57434;42.794;23.302;2023-07-13T01:18:23;12.67;;;7.17;;
70071;SDS011;57434;42.794;23.302;2023-07-13T01:21:00;10.55;;;5.80;;
70071;SDS011;57434;42.794;23.302;2023-07-13T01:22:03;12.70;;;6.88;;
70071;SDS011;57434;42.794;23.302;2023-07-13T01:23:05;12.60;;;6.30;;
70071;SDS011;57434;42.794;23.302;2023-07-13T01:24:08;10.43;;;5.72;;
70071;SDS011;57434;42.794;23.302;2023-07-13T01:25:09;11.75;;;6.65;;
70071;SDS011;57434;42.794;23.302;2023-07-13T01:26:11;9.85;;;6.10;;
70071;SDS011;57434;42.794;23.302;2023-07-13T01:27:14;10.95;;;6.40;;
70071;SDS011;57434;42.794;23.302;2023-07-13T01:28:16;11.50;;;6.80;;
70071;SDS011;57434;42.794;23.302;2023-07-13T01:29:18;10.33;;;6.40;;
70071;SDS011;57434;42.794;23.302;2023-07-13T01:30:20;11.82;;;7.18;;
70071;SDS011;57434;42.794;23.302;2023-07-13T01:31:22;10.82;;;7.20;;
70071;SDS011;57434;42.794;23.302;2023-07-13T01:32:24;12.05;;;7.13;;
70071;SDS011;57434;42.794;23.302;2023-07-13T01:33:26;11.65;;;7.22;;
70071;SDS011;57434;42.794;23.302;2023-07-13T01:34:27;12.63;;;7.40;;
70071;SDS011;57434;42.794;23.302;2023-07-13T01:35:29;12.82;;;6.85;;
70071;SDS011;57434;42.794;23.302;2023-07-13T01:36:31;9.98;;;6.70;;
70071;SDS011;57434;42.794;23.302;2023-07-13T01:37:33;10.23;;;6.63;;
70071;SDS011;57434;42.794;23.302;2023-07-13T01:38:35;10.80;;;6.20;;
70071;SDS011;57434;42.794;23.302;2023-07-13T01:39:37;11.73;;;7.30;;
70071;SDS011;57434;42.794;23.302;2023-07-13T01:40:38;10.52;;;6.75;;
70071;SDS011;57434;42.794;23.302;2023-07-13T01:41:40;11.00;;;6.72;;
70071;SDS011;57434;42.794;23.302;2023-07-13T01:42:42;10.48;;;6.35;;
70071;SDS011;57434;42.794;23.302;2023-07-13T01:43:44;10.20;;;6.05;;
70071;SDS011;57434;42.794;23.302;2023-07-13T01:44:45;13.48;;;7.05;;
70071;SDS011;57434;42.794;23.302;2023-07-13T01:45:47;11.23;;;6.95;;
70071;SDS011;57434;42.794;23.302;2023-07-13T01:46:48;10.68;;;6.63;;
70071;SDS011;57434;42.794;23.302;2023-07-13T01:47:50;9.90;;;6.97;;
70071;SDS011;57434;42.794;23.302;2023-07-13T01:48:52;14.07;;;6.30;;
70071;SDS011;57434;42.794;23.302;2023-07-13T01:49:53;11.87;;;6.13;;
70071;SDS011;57434;42.794;23.302;2023-07-13T01:50:55;11.05;;;6.53;;
70071;SDS011;57434;42.794;23.302;2023-07-13T01:51:57;10.25;;;6.10;;
70071;SDS011;57434;42.794;23.302;2023-07-13T01:52:58;9.93;;;6.40;;
70071;SDS011;57434;42.794;23.302;2023-07-13T01:54:00;8.95;;;6.60;;
70071;SDS011;57434;42.794;23.302;2023-07-13T01:55:02;11.98;;;7.15;;
70071;SDS011;57434;42.794;23.302;2023-07-13T01:56:04;10.07;;;6.40;;
70071;SDS011;57434;42.794;23.302;2023-07-13T01:57:06;10.48;;;6.07;;
70071;SDS011;57434;42.794;23.302;2023-07-13T01:58:08;11.73;;;6.55;;
70071;SDS011;57434;42.794;23.302;2023-07-13T01:59:10;12.40;;;6.07;;
70071;SDS011;57434;42.794;23.302;2023-07-13T02:03:08;10.05;;;6.28;;
70071;SDS011;57434;42.794;23.302;2023-07-13T02:04:14;11.68;;;6.63;;
70071;SDS011;57434;42.794;23.302;2023-07-13T02:05:16;11.48;;;6.32;;
70071;SDS011;57434;42.794;23.302;2023-07-13T02:06:18;11.77;;;6.50;;
70071;SDS011;57434;42.794;23.302;2023-07-13T02:07:20;11.68;;;6.65;;
70071;SDS011;57434;42.794;23.302;2023-07-13T02:08:22;11.48;;;6.80;;
70071;SDS011;57434;42.794;23.302;2023-07-13T02:09:23;10.93;;;6.20;;
70071;SDS011;57434;42.794;23.302;2023-07-13T02:10:25;10.95;;;6.20;;
70071;SDS011;57434;42.794;23.302;2023-07-13T02:11:27;12.30;;;6.90;;
70071;SDS011;57434;42.794;23.302;2023-07-13T02:12:28;10.82;;;6.30;;
70071;SDS011;57434;42.794;23.302;2023-07-13T02:13:30;10.65;;;6.68;;
70071;SDS011;57434;42.794;23.302;2023-07-13T02:14:32;10.43;;;6.30;;
70071;SDS011;57434;42.794;23.302;2023-07-13T02:15:33;13.57;;;6.97;;
70071;SDS011;57434;42.794;23.302;2023-07-13T02:16:35;13.52;;;6.57;;
70071;SDS011;57434;42.794;23.302;2023-07-13T02:17:37;12.23;;;6.93;;
70071;SDS011;57434;42.794;23.302;2023-07-13T02:18:38;9.85;;;6.05;;
70071;SDS011;57434;42.794;23.302;2023-07-13T02:19:40;11.93;;;6.75;;
70071;SDS011;57434;42.794;23.302;2023-07-13T02:20:42;10.65;;;6.35;;
70071;SDS011;57434;42.794;23.302;2023-07-13T02:21:44;9.77;;;6.07;;
70071;SDS011;57434;42.794;23.302;2023-07-13T02:22:46;11.48;;;6.30;;
70071;SDS011;57434;42.794;23.302;2023-07-13T02:23:48;11.73;;;6.50;;
70071;SDS011;57434;42.794;23.302;2023-07-13T02:24:49;14.27;;;6.40;;
70071;SDS011;57434;42.794;23.302;2023-07-13T02:25:58;10.55;;;6.53;;
70071;SDS011;57434;42.794;23.302;2023-07-13T02:26:59;12.45;;;6.32;;
70071;SDS011;57434;42.794;23.302;2023-07-13T02:28:01;10.82;;;6.45;;
70071;SDS011;57434;42.794;23.302;2023-07-13T02:29:03;10.32;;;6.15;;
70071;SDS011;57434;42.794;23.302;2023-07-13T02:30:05;10.93;;;6.40;;
70071;SDS011;57434;42.794;23.302;2023-07-13T02:31:08;13.00;;;6.72;;
70071;SDS011;57434;42.794;23.302;2023-07-13T02:32:10;10.87;;;6.33;;
70071;SDS011;57434;42.794;23.302;2023-07-13T02:33:12;11.30;;;6.57;;
70071;SDS011;57434;42.794;23.302;2023-07-13T02:34:14;13.52;;;6.13;;
70071;SDS011;57434;42.794;23.302;2023-07-13T02:35:15;10.75;;;6.60;;
70071;SDS011;57434;42.794;23.302;2023-07-13T02:36:17;12.35;;;6.45;;
70071;SDS011;57434;42.794;23.302;2023-07-13T02:37:19;9.25;;;6.03;;
70071;SDS011;57434;42.794;23.302;2023-07-13T02:38:21;9.93;;;6.07;;
70071;SDS011;57434;42.794;23.302;2023-07-13T02:39:22;11.10;;;6.60;;
70071;SDS011;57434;42.794;23.302;2023-07-13T02:40:24;10.63;;;6.32;;
70071;SDS011;57434;42.794;23.302;2023-07-13T02:41:26;10.27;;;5.90;;
70071;SDS011;57434;42.794;23.302;2023-07-13T02:42:28;9.93;;;6.20;;
70071;SDS011;57434;42.794;23.302;2023-07-13T02:43:30;12.30;;;7.05;;
70071;SDS011;57434;42.794;23.302;2023-07-13T02:44:31;10.18;;;6.47;;
70071;SDS011;57434;42.794;23.302;2023-07-13T02:45:33;10.23;;;6.65;;
70071;SDS011;57434;42.794;23.302;2023-07-13T02:46:36;11.35;;;6.43;;
70071;SDS011;57434;42.794;23.302;2023-07-13T02:47:39;11.93;;;6.60;;
70071;SDS011;57434;42.794;23.302;2023-07-13T02:48:41;10.82;;;6.30;;
70071;SDS011;57434;42.794;23.302;2023-07-13T02:49:43;11.57;;;6.50;;
70071;SDS011;57434;42.794;23.302;2023-07-13T02:50:45;10.38;;;6.35;;
70071;SDS011;57434;42.794;23.302;2023-07-13T02:51:47;9.95;;;6.07;;
70071;SDS011;57434;42.794;23.302;2023-07-13T02:52:48;10.03;;;6.23;;
70071;SDS011;57434;42.794;23.302;2023-07-13T02:53:50;16.52;;;6.93;;
70071;SDS011;57434;42.794;23.302;2023-07-13T02:54:52;11.57;;;6.55;;
70071;SDS011;57434;42.794;23.302;2023-07-13T02:55:53;10.55;;;7.20;;
70071;SDS011;57434;42.794;23.302;2023-07-13T02:56:55;11.75;;;6.22;;
70071;SDS011;57434;42.794;23.302;2023-07-13T02:57:56;10.38;;;6.85;;
70071;SDS011;57434;42.794;23.302;2023-07-13T02:58:58;11.50;;;6.93;;
70071;SDS011;57434;42.794;23.302;2023-07-13T03:00:00;10.60;;;6.35;;
70071;SDS011;57434;42.794;23.302;2023-07-13T03:01:05;11.02;;;6.85;;
70071;SDS011;57434;42.794;23.302;2023-07-13T03:02:07;13.93;;;7.15;;
70071;SDS011;57434;42.794;23.302;2023-07-13T03:03:09;13.07;;;6.97;;
70071;SDS011;57434;42.794;23.302;2023-07-13T03:04:11;10.43;;;6.10;;
70071;SDS011;57434;42.794;23.302;2023-07-13T03:05:13;11.85;;;6.75;;
70071;SDS011;57434;42.794;23.302;2023-07-13T03:06:15;12.10;;;6.88;;
70071;SDS011;57434;42.794;23.302;2023-07-13T03:07:17;11.30;;;6.70;;
70071;SDS011;57434;42.794;23.302;2023-07-13T03:08:18;11.02;;;6.35;;
70071;SDS011;57434;42.794;23.302;2023-07-13T03:09:20;12.38;;;6.50;;
70071;SDS011;57434;42.794;23.302;2023-07-13T03:10:22;11.38;;;5.82;;
70071;SDS011;57434;42.794;23.302;2023-07-13T03:11:23;10.00;;;6.60;;
70071;SDS011;57434;42.794;23.302;2023-07-13T03:12:25;12.00;;;6.35;;
70071;SDS011;57434;42.794;23.302;2023-07-13T03:13:27;13.20;;;6.63;;
70071;SDS011;57434;42.794;23.302;2023-07-13T03:14:29;11.30;;;6.43;;
70071;SDS011;57434;42.794;23.302;2023-07-13T03:15:30;12.43;;;6.47;;
70071;SDS011;57434;42.794;23.302;2023-07-13T03:16:32;12.73;;;7.15;;
70071;SDS011;57434;42.794;23.302;2023-07-13T03:17:33;10.63;;;6.05;;
70071;SDS011;57434;42.794;23.302;2023-07-13T03:18:35;11.48;;;6.78;;
70071;SDS011;57434;42.794;23.302;2023-07-13T03:19:37;11.65;;;6.50;;
70071;SDS011;57434;42.794;23.302;2023-07-13T03:20:39;14.10;;;6.63;;
70071;SDS011;57434;42.794;23.302;2023-07-13T03:21:40;12.73;;;6.65;;
70071;SDS011;57434;42.794;23.302;2023-07-13T03:22:42;10.02;;;5.88;;
70071;SDS011;57434;42.794;23.302;2023-07-13T03:23:44;16.60;;;6.57;;
70071;SDS011;57434;42.794;23.302;2023-07-13T03:24:45;10.15;;;6.63;;
70071;SDS011;57434;42.794;23.302;2023-07-13T03:25:47;13.80;;;7.18;;
70071;SDS011;57434;42.794;23.302;2023-07-13T03:26:49;14.30;;;7.00;;
70071;SDS011;57434;42.794;23.302;2023-07-13T03:27:50;9.27;;;6.10;;
70071;SDS011;57434;42.794;23.302;2023-07-13T03:28:52;10.38;;;6.28;;
70071;SDS011;57434;42.794;23.302;2023-07-13T03:29:54;11.45;;;6.72;;
70071;SDS011;57434;42.794;23.302;2023-07-13T03:31:02;14.45;;;7.97;;
70071;SDS011;57434;42.794;23.302;2023-07-13T03:32:05;12.10;;;6.80;;
70071;SDS011;57434;42.794;23.302;2023-07-13T03:33:06;12.32;;;6.38;;
70071;SDS011;57434;42.794;23.302;2023-07-13T03:34:09;12.37;;;7.10;;
70071;SDS011;57434;42.794;23.302;2023-07-13T03:35:10;11.88;;;6.80;;
70071;SDS011;57434;42.794;23.302;2023-07-13T03:36:13;12.57;;;7.35;;
70071;SDS011;57434;42.794;23.302;2023-07-13T03:37:15;12.82;;;6.72;;
70071;SDS011;57434;42.794;23.302;2023-07-13T03:38:17;14.88;;;6.95;;
70071;SDS011;57434;42.794;23.302;2023-07-13T03:39:18;13.88;;;6.70;;
70071;SDS011;57434;42.794;23.302;2023-07-13T03:40:20;10.15;;;6.47;;
70071;SDS011;57434;42.794;23.302;2023-07-13T03:41:23;10.90;;;6.32;;
70071;SDS011;57434;42.794;23.302;2023-07-13T03:42:25;12.70;;;6.97;;
70071;SDS011;57434;42.794;23.302;2023-07-13T03:43:26;11.23;;;6.50;;
70071;SDS011;57434;42.794;23.302;2023-07-13T03:44:28;13.63;;;7.67;;
70071;SDS011;57434;42.794;23.302;2023-07-13T03:45:30;11.52;;;6.65;;
70071;SDS011;57434;42.794;23.302;2023-07-13T03:46:32;13.50;;;6.93;;
70071;SDS011;57434;42.794;23.302;2023-07-13T03:47:34;10.20;;;6.90;;
70071;SDS011;57434;42.794;23.302;2023-07-13T03:48:36;11.57;;;6.95;;
70071;SDS011;57434;42.794;23.302;2023-07-13T03:49:37;13.07;;;7.40;;
70071;SDS011;57434;42.794;23.302;2023-07-13T03:50:39;12.02;;;6.68;;
70071;SDS011;57434;42.794;23.302;2023-07-13T03:51:41;12.00;;;6.93;;
70071;SDS011;57434;42.794;23.302;2023-07-13T03:52:42;12.07;;;7.43;;
70071;SDS011;57434;42.794;23.302;2023-07-13T03:53:45;12.15;;;7.35;;
70071;SDS011;57434;42.794;23.302;2023-07-13T03:54:47;12.23;;;6.83;;
70071;SDS011;57434;42.794;23.302;2023-07-13T03:55:49;13.60;;;7.47;;
70071;SDS011;57434;42.794;23.302;2023-07-13T03:56:50;10.80;;;7.20;;
70071;SDS011;57434;42.794;23.302;2023-07-13T03:57:54;12.10;;;7.50;;
70071;SDS011;57434;42.794;23.302;2023-07-13T03:58:56;11.85;;;7.13;;
70071;SDS011;57434;42.794;23.302;2023-07-13T03:59:58;11.88;;;6.40;;
70071;SDS011;57434;42.794;23.302;2023-07-13T04:01:00;15.02;;;7.03;;
70071;SDS011;57434;42.794;23.302;2023-07-13T04:02:02;13.00;;;6.47;;
70071;SDS011;57434;42.794;23.302;2023-07-13T04:03:04;12.63;;;7.13;;
70071;SDS011;57434;42.794;23.302;2023-07-13T04:04:05;12.38;;;7.57;;
70071;SDS011;57434;42.794;23.302;2023-07-13T04:05:07;11.13;;;6.73;;
70071;SDS011;57434;42.794;23.302;2023-07-13T04:06:13;12.07;;;7.30;;
70071;SDS011;57434;42.794;23.302;2023-07-13T04:07:15;13.75;;;7.97;;
70071;SDS011;57434;42.794;23.302;2023-07-13T04:08:17;13.05;;;7.40;;
70071;SDS011;57434;42.794;23.302;2023-07-13T04:09:18;13.50;;;7.32;;
70071;SDS011;57434;42.794;23.302;2023-07-13T04:10:20;12.50;;;6.78;;
70071;SDS011;57434;42.794;23.302;2023-07-13T04:11:22;13.38;;;7.70;;
70071;SDS011;57434;42.794;23.302;2023-07-13T04:12:25;14.07;;;7.78;;
70071;SDS011;57434;42.794;23.302;2023-07-13T04:13:29;13.75;;;7.43;;
70071;SDS011;57434;42.794;23.302;2023-07-13T04:14:31;11.40;;;7.10;;
70071;SDS011;57434;42.794;23.302;2023-07-13T04:15:33;11.17;;;7.40;;
70071;SDS011;57434;42.794;23.302;2023-07-13T04:16:35;13.48;;;7.80;;
70071;SDS011;57434;42.794;23.302;2023-07-13T04:17:36;14.05;;;7.78;;
70071;SDS011;57434;42.794;23.302;2023-07-13T04:18:38;14.82;;;7.32;;
70071;SDS011;57434;42.794;23.302;2023-07-13T04:19:40;12.02;;;7.35;;
70071;SDS011;57434;42.794;23.302;2023-07-13T04:20:42;14.82;;;7.57;;
70071;SDS011;57434;42.794;23.302;2023-07-13T04:21:44;11.52;;;6.90;;
70071;SDS011;57434;42.794;23.302;2023-07-13T04:22:45;12.80;;;7.78;;
70071;SDS011;57434;42.794;23.302;2023-07-13T04:23:47;15.00;;;8.45;;
70071;SDS011;57434;42.794;23.302;2023-07-13T04:24:49;12.38;;;7.88;;
70071;SDS011;57434;42.794;23.302;2023-07-13T04:25:52;13.33;;;8.40;;
70071;SDS011;57434;42.794;23.302;2023-07-13T04:26:54;13.30;;;7.93;;
70071;SDS011;57434;42.794;23.302;2023-07-13T04:27:55;13.05;;;8.05;;
70071;SDS011;57434;42.794;23.302;2023-07-13T04:28:57;12.43;;;8.13;;
70071;SDS011;57434;42.794;23.302;2023-07-13T04:29:59;12.27;;;8.02;;
70071;SDS011;57434;42.794;23.302;2023-07-13T04:31:01;14.38;;;8.70;;
70071;SDS011;57434;42.794;23.302;2023-07-13T04:32:02;12.50;;;7.97;;
70071;SDS011;57434;42.794;23.302;2023-07-13T04:33:04;16.23;;;9.07;;
70071;SDS011;57434;42.794;23.302;2023-07-13T04:34:06;14.90;;;8.88;;
70071;SDS011;57434;42.794;23.302;2023-07-13T04:35:08;12.57;;;8.00;;
70071;SDS011;57434;42.794;23.302;2023-07-13T04:36:10;13.20;;;8.40;;
70071;SDS011;57434;42.794;23.302;2023-07-13T04:37:12;14.73;;;8.75;;
70071;SDS011;57434;42.794;23.302;2023-07-13T04:38:14;17.35;;;9.50;;
70071;SDS011;57434;42.794;23.302;2023-07-13T04:39:16;17.17;;;9.43;;
70071;SDS011;57434;42.794;23.302;2023-07-13T04:40:18;12.70;;;9.13;;
70071;SDS011;57434;42.794;23.302;2023-07-13T04:41:20;16.15;;;9.07;;
70071;SDS011;57434;42.794;23.302;2023-07-13T04:42:22;12.95;;;8.90;;
70071;SDS011;57434;42.794;23.302;2023-07-13T04:43:24;13.02;;;8.90;;
70071;SDS011;57434;42.794;23.302;2023-07-13T04:44:25;13.70;;;9.00;;
70071;SDS011;57434;42.794;23.302;2023-07-13T04:45:27;14.10;;;8.85;;
70071;SDS011;57434;42.794;23.302;2023-07-13T04:46:29;13.67;;;9.07;;
70071;SDS011;57434;42.794;23.302;2023-07-13T04:47:31;14.05;;;8.98;;
70071;SDS011;57434;42.794;23.302;2023-07-13T04:48:32;16.67;;;8.90;;
70071;SDS011;57434;42.794;23.302;2023-07-13T04:49:34;15.35;;;9.05;;
70071;SDS011;57434;42.794;23.302;2023-07-13T04:50:36;14.57;;;8.43;;
70071;SDS011;57434;42.794;23.302;2023-07-13T04:51:38;13.13;;;9.15;;
70071;SDS011;57434;42.794;23.302;2023-07-13T04:52:40;13.77;;;8.95;;
70071;SDS011;57434;42.794;23.302;2023-07-13T04:53:42;12.15;;;8.85;;
70071;SDS011;57434;42.794;23.302;2023-07-13T04:54:44;11.82;;;8.93;;
70071;SDS011;57434;42.794;23.302;2023-07-13T04:55:46;14.32;;;8.82;;
70071;SDS011;57434;42.794;23.302;2023-07-13T04:56:47;14.87;;;9.10;;
70071;SDS011;57434;42.794;23.302;2023-07-13T04:57:49;12.63;;;8.48;;
70071;SDS011;57434;42.794;23.302;2023-07-13T04:58:51;17.42;;;9.40;;
70071;SDS011;57434;42.794;23.302;2023-07-13T04:59:52;15.07;;;8.65;;
70071;SDS011;57434;42.794;23.302;2023-07-13T05:00:59;13.25;;;9.80;;
70071;SDS011;57434;42.794;23.302;2023-07-13T05:02:01;14.23;;;9.45;;
70071;SDS011;57434;42.794;23.302;2023-07-13T05:03:03;13.57;;;8.75;;
70071;SDS011;57434;42.794;23.302;2023-07-13T05:04:04;16.10;;;8.52;;
70071;SDS011;57434;42.794;23.302;2023-07-13T05:05:06;17.17;;;9.50;;
70071;SDS011;57434;42.794;23.302;2023-07-13T05:06:08;13.93;;;8.98;;
70071;SDS011;57434;42.794;23.302;2023-07-13T05:07:10;14.67;;;9.80;;
70071;SDS011;57434;42.794;23.302;2023-07-13T05:08:11;13.70;;;8.75;;
70071;SDS011;57434;42.794;23.302;2023-07-13T05:09:13;14.20;;;10.13;;
70071;SDS011;57434;42.794;23.302;2023-07-13T05:10:15;14.18;;;8.98;;
70071;SDS011;57434;42.794;23.302;2023-07-13T05:11:17;13.63;;;8.65;;
70071;SDS011;57434;42.794;23.302;2023-07-13T05:12:19;12.52;;;8.07;;
70071;SDS011;57434;42.794;23.302;2023-07-13T05:13:20;15.02;;;9.27;;
70071;SDS011;57434;42.794;23.302;2023-07-13T05:14:22;14.82;;;9.00;;
70071;SDS011;57434;42.794;23.302;2023-07-13T05:15:24;14.32;;;9.05;;
70071;SDS011;57434;42.794;23.302;2023-07-13T05:16:25;14.07;;;8.35;;
70071;SDS011;57434;42.794;23.302;2023-07-13T05:17:27;14.97;;;8.53;;
70071;SDS011;57434;42.794;23.302;2023-07-13T05:18:29;15.23;;;8.77;;
70071;SDS011;57434;42.794;23.302;2023-07-13T05:19:31;11.77;;;8.30;;
70071;SDS011;57434;42.794;23.302;2023-07-13T05:20:32;14.65;;;9.13;;
70071;SDS011;57434;42.794;23.302;2023-07-13T05:21:34;14.02;;;9.13;;
70071;SDS011;57434;42.794;23.302;2023-07-13T05:22:36;12.82;;;8.73;;
70071;SDS011;57434;42.794;23.302;2023-07-13T05:23:38;15.20;;;8.98;;
70071;SDS011;57434;42.794;23.302;2023-07-13T05:24:40;15.50;;;9.30;;
70071;SDS011;57434;42.794;23.302;2023-07-13T05:25:42;16.02;;;9.93;;
70071;SDS011;57434;42.794;23.302;2023-07-13T05:26:44;13.88;;;9.25;;
70071;SDS011;57434;42.794;23.302;2023-07-13T05:27:45;13.80;;;9.53;;
70071;SDS011;57434;42.794;23.302;2023-07-13T05:28:47;14.48;;;8.40;;
70071;SDS011;57434;42.794;23.302;2023-07-13T05:29:49;15.95;;;8.93;;
70071;SDS011;57434;42.794;23.302;2023-07-13T05:30:50;14.07;;;9.50;;
70071;SDS011;57434;42.794;23.302;2023-07-13T05:31:52;12.80;;;8.75;;
70071;SDS011;57434;42.794;23.302;2023-07-13T05:32:54;15.57;;;8.55;;
70071;SDS011;57434;42.794;23.302;2023-07-13T05:33:56;15.75;;;9.38;;
70071;SDS011;57434;42.794;23.302;2023-07-13T05:34:57;17.95;;;8.98;;
70071;SDS011;57434;42.794;23.302;2023-07-13T05:35:59;15.45;;;9.00;;
70071;SDS011;57434;42.794;23.302;2023-07-13T05:37:01;14.93;;;8.57;;
70071;SDS011;57434;42.794;23.302;2023-07-13T05:38:02;13.30;;;8.20;;
70071;SDS011;57434;42.794;23.302;2023-07-13T05:39:04;15.05;;;8.30;;
70071;SDS011;57434;42.794;23.302;2023-07-13T05:40:06;13.38;;;8.07;;
70071;SDS011;57434;42.794;23.302;2023-07-13T05:41:07;12.98;;;8.60;;
70071;SDS011;57434;42.794;23.302;2023-07-13T05:42:09;12.00;;;8.30;;
70071;SDS011;57434;42.794;23.302;2023-07-13T05:43:11;13.15;;;8.73;;
70071;SDS011;57434;42.794;23.302;2023-07-13T05:44:13;13.40;;;9.07;;
70071;SDS011;57434;42.794;23.302;2023-07-13T05:45:15;16.73;;;8.48;;
70071;SDS011;57434;42.794;23.302;2023-07-13T05:46:16;14.98;;;9.50;;
70071;SDS011;57434;42.794;23.302;2023-07-13T05:47:18;13.45;;;9.30;;
70071;SDS011;57434;42.794;23.302;2023-07-13T05:48:20;13.17;;;9.43;;
70071;SDS011;57434;42.794;23.302;2023-07-13T05:49:22;15.18;;;9.55;;
70071;SDS011;57434;42.794;23.302;2023-07-13T05:50:25;17.35;;;9.85;;
70071;SDS011;57434;42.794;23.302;2023-07-13T05:51:27;14.23;;;9.50;;
70071;SDS011;57434;42.794;23.302;2023-07-13T05:52:28;19.33;;;9.77;;
70071;SDS011;57434;42.794;23.302;2023-07-13T05:53:30;15.68;;;8.55;;
70071;SDS011;57434;42.794;23.302;2023-07-13T05:54:32;14.00;;;8.70;;
70071;SDS011;57434;42.794;23.302;2023-07-13T05:55:33;15.32;;;8.90;;
70071;SDS011;57434;42.794;23.302;2023-07-13T05:56:35;12.05;;;8.20;;
70071;SDS011;57434;42.794;23.302;2023-07-13T05:57:36;13.55;;;8.13;;
70071;SDS011;57434;42.794;23.302;2023-07-13T05:58:38;14.13;;;8.50;;
70071;SDS011;57434;42.794;23.302;2023-07-13T05:59:40;12.45;;;8.60;;
70071;SDS011;57434;42.794;23.302;2023-07-13T06:00:41;12.98;;;8.18;;
70071;SDS011;57434;42.794;23.302;2023-07-13T06:01:43;12.00;;;8.40;;
70071;SDS011;57434;42.794;23.302;2023-07-13T06:02:45;14.05;;;8.60;;
70071;SDS011;57434;42.794;23.302;2023-07-13T06:03:46;12.55;;;8.35;;
70071;SDS011;57434;42.794;23.302;2023-07-13T06:04:48;11.48;;;7.70;;
70071;SDS011;57434;42.794;23.302;2023-07-13T06:05:53;13.48;;;8.68;;
70071;SDS011;57434;42.794;23.302;2023-07-13T06:06:54;13.85;;;8.90;;
70071;SDS011;57434;42.794;23.302;2023-07-13T06:07:56;12.48;;;8.55;;
70071;SDS011;57434;42.794;23.302;2023-07-13T06:08:58;13.43;;;7.67;;
70071;SDS011;57434;42.794;23.302;2023-07-13T06:10:00;12.70;;;8.02;;
70071;SDS011;57434;42.794;23.302;2023-07-13T06:11:02;12.90;;;8.10;;